sensor_id;sensor_type;location;lat;lon;timestamp;pressure;altitude;pressure_sealevel;temperature;humidity
2675;BME280;1347;42.122;24.746;2023-03-26T00:02:03;98830.56;;;12.46;100.00
2675;BME280;1347;42.122;24.746;2023-03-26T00:04:30;98831.78;;;12.38;100.00
2675;BME280;1347;42.122;24.746;2023-03-26T00:06:58;98843.19;;;12.26;100.00
2675;BME280;1347;42.122;24.746;2023-03-26T00:09:25;98830.72;;;12.00;100.00
2675;BME280;1347;42.122;24.746;2023-03-26T00:11:54;98836.59;;;11.92;100.00
2675;BME280;1347;42.122;24.746;2023-03-26T00:14:21;98833.47;;;11.79;100.00
2675;BME280;1347;42.122;24.746;2023-03-26T00:16:48;98837.81;;;11.80;100.00
2675;BME280;1347;42.122;24.746;2023-03-26T00:19:17;98832.69;;;11.78;100.00
2675;BME280;1347;42.122;24.746;2023-03-26T00:21:44;98826.78;;;11.84;100.00
2675;BME280;1347;42.122;24.746;2023-03-26T00:24:13;98818.94;;;11.86;100.00
2675;BME280;1347;42.122;24.746;2023-03-26T00:26:40;98820.13;;;11.81;100.00
2675;BME280;1347;42.122;24.746;2023-03-26T00:29:08;98815.03;;;11.87;100.00
2675;BME280;1347;42.122;24.746;2023-03-26T00:31:37;98817.78;;;11.87;100.00
2675;BME280;1347;42.122;24.746;2023-03-26T00:34:05;98807.94;;;11.93;100.00
2675;BME280;1347;42.122;24.746;2023-03-26T00:36:34;98811.88;;;11.95;100.00
2675;BME280;1347;42.122;24.746;2023-03-26T00:39:02;98808.31;;;12.05;100.00
2675;BME280;1347;42.122;24.746;2023-03-26T00:41:30;98804.38;;;12.06;100.00
2675;BME280;1347;42.122;24.746;2023-03-26T00:44:01;98796.50;;;12.12;100.00
2675;BME280;1347;42.122;24.746;2023-03-26T00:46:29;98800.84;;;12.16;100.00
2675;BME280;1347;42.122;24.746;2023-03-26T00:48:57;98799.22;;;12.23;100.00
2675;BME280;1347;42.122;24.746;2023-03-26T00:51:25;98792.16;;;12.25;100.00
2675;BME280;1347;42.122;24.746;2023-03-26T00:53:55;98794.09;;;12.32;100.00
2675;BME280;1347;42.122;24.746;2023-03-26T00:56:23;98795.63;;;12.43;100.00
2675;BME280;1347;42.122;24.746;2023-03-26T00:58:50;98805.38;;;12.55;100.00
2675;BME280;1347;42.122;24.746;2023-03-26T01:01:18;98810.84;;;12.69;100.00
2675;BME280;1347;42.122;24.746;2023-03-26T01:03:51;98811.53;;;12.84;100.00
2675;BME280;1347;42.122;24.746;2023-03-26T01:06:24;98815.03;;;12.92;100.00
2675;BME280;1347;42.122;24.746;2023-03-26T01:08:55;98813.41;;;13.01;100.00
2675;BME280;1347;42.122;24.746;2023-03-26T01:11:27;98816.50;;;13.03;100.00
2675;BME280;1347;42.122;24.746;2023-03-26T01:13:58;98816.88;;;13.09;100.00
2675;BME280;1347;42.122;24.746;2023-03-26T01:16:28;98827.47;;;13.14;100.00
2675;BME280;1347;42.122;24.746;2023-03-26T01:18:57;98845.16;;;13.16;100.00
2675;BME280;1347;42.122;24.746;2023-03-26T01:21:26;98857.75;;;13.17;100.00
2675;BME280;1347;42.122;24.746;2023-03-26T01:23:58;98851.44;;;13.20;100.00
2675;BME280;1347;42.122;24.746;2023-03-26T01:26:42;98846.66;;;13.28;100.00
2675;BME280;1347;42.122;24.746;2023-03-26T01:29:19;98844.25;;;13.34;100.00
2675;BME280;1347;42.122;24.746;2023-03-26T01:31:56;98852.59;;;13.23;100.00
2675;BME280;1347;42.122;24.746;2023-03-26T01:34:32;98856.09;;;13.31;100.00
2675;BME280;1347;42.122;24.746;2023-03-26T01:37:10;98856.84;;;13.35;100.00
2675;BME280;1347;42.122;24.746;2023-03-26T01:39:46;98853.34;;;13.31;100.00
2675;BME280;1347;42.122;24.746;2023-03-26T01:42:20;98863.63;;;13.23;100.00
2675;BME280;1347;42.122;24.746;2023-03-26T01:44:55;98866.38;;;13.19;100.00
2675;BME280;1347;42.122;24.746;2023-03-26T01:47:24;98858.88;;;13.23;100.00
2675;BME280;1347;42.122;24.746;2023-03-26T01:49:51;98868.28;;;13.26;100.00
2675;BME280;1347;42.122;24.746;2023-03-26T01:52:21;98875.38;;;13.27;99.84
2675;BME280;1347;42.122;24.746;2023-03-26T01:54:52;98871.38;;;13.35;98.59
2675;BME280;1347;42.122;24.746;2023-03-26T01:57:28;98867.03;;;13.38;98.08
2675;BME280;1347;42.122;24.746;2023-03-26T02:00:18;98876.47;;;13.40;97.61
2675;BME280;1347;42.122;24.746;2023-03-26T02:02:58;98874.91;;;13.39;95.29
2675;BME280;1347;42.122;24.746;2023-03-26T02:05:30;98874.53;;;13.37;93.36
2675;BME280;1347;42.122;24.746;2023-03-26T02:08:04;98875.66;;;13.43;91.80
2675;BME280;1347;42.122;24.746;2023-03-26T02:10:40;98878.38;;;13.47;90.27
2675;BME280;1347;42.122;24.746;2023-03-26T02:13:08;98876.78;;;13.49;90.80
2675;BME280;1347;42.122;24.746;2023-03-26T02:15:36;98876.78;;;13.53;89.46
2675;BME280;1347;42.122;24.746;2023-03-26T02:18:03;98875.56;;;13.57;89.67
2675;BME280;1347;42.122;24.746;2023-03-26T02:20:30;98874.75;;;13.60;90.03
2675;BME280;1347;42.122;24.746;2023-03-26T02:22:58;98880.59;;;13.66;89.44
2675;BME280;1347;42.122;24.746;2023-03-26T02:25:25;98878.63;;;13.67;88.93
2675;BME280;1347;42.122;24.746;2023-03-26T02:27:53;98872.66;;;13.75;86.81
2675;BME280;1347;42.122;24.746;2023-03-26T02:30:23;98876.56;;;13.81;85.17
2675;BME280;1347;42.122;24.746;2023-03-26T02:32:51;98880.47;;;13.84;84.80
2675;BME280;1347;42.122;24.746;2023-03-26T02:35:19;98865.44;;;13.92;83.68
2675;BME280;1347;42.122;24.746;2023-03-26T02:37:46;98878.38;;;13.95;83.09
2675;BME280;1347;42.122;24.746;2023-03-26T02:40:16;98885.06;;;13.97;82.81
2675;BME280;1347;42.122;24.746;2023-03-26T02:42:45;98884.28;;;13.97;81.88
2675;BME280;1347;42.122;24.746;2023-03-26T02:45:14;98879.53;;;14.01;80.04
2675;BME280;1347;42.122;24.746;2023-03-26T02:47:41;98891.28;;;14.05;78.99
2675;BME280;1347;42.122;24.746;2023-03-26T02:50:10;98887.69;;;14.12;78.32
2675;BME280;1347;42.122;24.746;2023-03-26T02:52:37;98901.50;;;14.08;78.10
2675;BME280;1347;42.122;24.746;2023-03-26T02:55:04;98901.47;;;14.12;76.52
2675;BME280;1347;42.122;24.746;2023-03-26T02:57:31;98907.38;;;14.10;76.67
2675;BME280;1347;42.122;24.746;2023-03-26T02:59:58;98902.66;;;14.11;76.41
2675;BME280;1347;42.122;24.746;2023-03-26T03:02:30;98911.34;;;14.06;76.24
2675;BME280;1347;42.122;24.746;2023-03-26T03:04:57;98914.97;;;13.99;76.03
2675;BME280;1347;42.122;24.746;2023-03-26T03:07:26;98907.09;;;13.97;75.91
2675;BME280;1347;42.122;24.746;2023-03-26T03:09:53;98909.44;;;13.99;75.86
2675;BME280;1347;42.122;24.746;2023-03-26T03:12:20;98921.69;;;13.94;75.82
2675;BME280;1347;42.122;24.746;2023-03-26T03:14:47;98922.13;;;13.93;74.74
2675;BME280;1347;42.122;24.746;2023-03-26T03:17:14;98929.94;;;13.94;74.00
2675;BME280;1347;42.122;24.746;2023-03-26T03:19:42;98934.72;;;13.94;73.97
2675;BME280;1347;42.122;24.746;2023-03-26T03:22:09;98925.28;;;13.88;73.80
2675;BME280;1347;42.122;24.746;2023-03-26T03:24:36;98932.03;;;13.83;74.65
2675;BME280;1347;42.122;24.746;2023-03-26T03:27:04;98931.28;;;13.76;74.30
2675;BME280;1347;42.122;24.746;2023-03-26T03:29:31;98935.66;;;13.70;74.10
2675;BME280;1347;42.122;24.746;2023-03-26T03:31:58;98929.78;;;13.68;73.72
2675;BME280;1347;42.122;24.746;2023-03-26T03:34:25;98941.63;;;13.61;74.06
2675;BME280;1347;42.122;24.746;2023-03-26T03:36:54;98951.53;;;13.51;73.83
2675;BME280;1347;42.122;24.746;2023-03-26T03:39:21;98942.88;;;13.46;74.39
2675;BME280;1347;42.122;24.746;2023-03-26T03:41:48;98948.78;;;13.44;73.91
2675;BME280;1347;42.122;24.746;2023-03-26T03:44:15;98949.22;;;13.39;74.56
2675;BME280;1347;42.122;24.746;2023-03-26T03:46:42;98954.34;;;13.37;73.94
2675;BME280;1347;42.122;24.746;2023-03-26T03:49:09;98962.25;;;13.32;74.33
2675;BME280;1347;42.122;24.746;2023-03-26T03:51:36;98957.94;;;13.23;74.45
2675;BME280;1347;42.122;24.746;2023-03-26T03:54:04;98968.22;;;13.16;74.68
2675;BME280;1347;42.122;24.746;2023-03-26T03:56:32;98972.16;;;13.15;74.74
2675;BME280;1347;42.122;24.746;2023-03-26T03:59:00;98974.13;;;13.07;74.95
2675;BME280;1347;42.122;24.746;2023-03-26T04:01:28;98977.69;;;12.97;75.53
2675;BME280;1347;42.122;24.746;2023-03-26T04:03:56;98971.84;;;12.92;75.23
2675;BME280;1347;42.122;24.746;2023-03-26T04:06:23;98978.50;;;12.90;75.57
2675;BME280;1347;42.122;24.746;2023-03-26T04:08:51;98978.91;;;12.85;75.43
2675;BME280;1347;42.122;24.746;2023-03-26T04:11:19;98976.59;;;12.80;75.20
2675;BME280;1347;42.122;24.746;2023-03-26T04:13:46;98981.25;;;12.83;75.54
2675;BME280;1347;42.122;24.746;2023-03-26T04:16:14;98967.91;;;12.85;74.75
2675;BME280;1347;42.122;24.746;2023-03-26T04:18:42;98969.09;;;12.88;74.26
2675;BME280;1347;42.122;24.746;2023-03-26T04:21:09;98979.69;;;12.89;74.09
2675;BME280;1347;42.122;24.746;2023-03-26T04:23:37;98980.09;;;12.88;74.67
2675;BME280;1347;42.122;24.746;2023-03-26T04:26:06;98984.81;;;12.91;74.30
2675;BME280;1347;42.122;24.746;2023-03-26T04:28:43;98978.50;;;12.87;74.15
2675;BME280;1347;42.122;24.746;2023-03-26T04:31:14;98997.38;;;12.88;74.75
2675;BME280;1347;42.122;24.746;2023-03-26T04:33:44;98995.41;;;12.85;74.47
2675;BME280;1347;42.122;24.746;2023-03-26T04:36:12;99002.47;;;12.83;74.86
2675;BME280;1347;42.122;24.746;2023-03-26T04:38:41;99009.19;;;12.82;74.99
2675;BME280;1347;42.122;24.746;2023-03-26T04:41:11;99009.56;;;12.84;74.75
2675;BME280;1347;42.122;24.746;2023-03-26T04:43:39;99012.69;;;12.82;74.85
2675;BME280;1347;42.122;24.746;2023-03-26T04:46:11;99024.91;;;12.81;74.99
2675;BME280;1347;42.122;24.746;2023-03-26T04:48:38;99020.94;;;12.86;74.54
2675;BME280;1347;42.122;24.746;2023-03-26T04:51:06;99008.78;;;12.83;75.07
2675;BME280;1347;42.122;24.746;2023-03-26T04:53:34;99022.94;;;12.82;74.73
2675;BME280;1347;42.122;24.746;2023-03-26T04:56:05;99026.06;;;12.84;74.44
2675;BME280;1347;42.122;24.746;2023-03-26T04:58:35;99045.72;;;12.89;74.05
2675;BME280;1347;42.122;24.746;2023-03-26T05:01:04;99044.94;;;12.89;74.63
2675;BME280;1347;42.122;24.746;2023-03-26T05:03:32;99041.75;;;12.98;73.92
2675;BME280;1347;42.122;24.746;2023-03-26T05:06:00;99033.91;;;13.00;73.91
2675;BME280;1347;42.122;24.746;2023-03-26T05:08:27;99061.81;;;13.02;73.56
2675;BME280;1347;42.122;24.746;2023-03-26T05:10:54;99062.16;;;13.07;73.68
2675;BME280;1347;42.122;24.746;2023-03-26T05:13:21;99068.47;;;13.15;73.45
2675;BME280;1347;42.122;24.746;2023-03-26T05:15:49;99070.03;;;13.16;73.55
2675;BME280;1347;42.122;24.746;2023-03-26T05:18:18;99063.34;;;13.20;73.10
2675;BME280;1347;42.122;24.746;2023-03-26T05:20:45;99062.56;;;13.20;72.96
2675;BME280;1347;42.122;24.746;2023-03-26T05:23:12;99076.31;;;13.20;72.96
2675;BME280;1347;42.122;24.746;2023-03-26T05:25:40;99070.00;;;13.26;73.73
2675;BME280;1347;42.122;24.746;2023-03-26T05:28:08;99077.09;;;13.24;73.40
2675;BME280;1347;42.122;24.746;2023-03-26T05:30:35;99078.66;;;13.29;73.93
2675;BME280;1347;42.122;24.746;2023-03-26T05:33:02;99077.84;;;13.42;73.39
2675;BME280;1347;42.122;24.746;2023-03-26T05:35:30;99088.38;;;13.58;73.54
2675;BME280;1347;42.122;24.746;2023-03-26T05:37:57;99096.94;;;13.78;73.18
2675;BME280;1347;42.122;24.746;2023-03-26T05:40:24;99104.31;;;13.98;72.72
2675;BME280;1347;42.122;24.746;2023-03-26T05:42:51;99092.38;;;14.19;72.25
2675;BME280;1347;42.122;24.746;2023-03-26T05:45:18;99108.78;;;14.44;71.55
2675;BME280;1347;42.122;24.746;2023-03-26T05:47:46;99106.22;;;14.67;70.94
2675;BME280;1347;42.122;24.746;2023-03-26T05:50:15;99112.31;;;14.93;69.76
2675;BME280;1347;42.122;24.746;2023-03-26T05:52:44;99119.25;;;15.12;70.13
2675;BME280;1347;42.122;24.746;2023-03-26T05:55:11;99113.81;;;15.38;68.78
2675;BME280;1347;42.122;24.746;2023-03-26T05:57:38;99112.88;;;15.56;68.95
2675;BME280;1347;42.122;24.746;2023-03-26T06:00:07;99129.84;;;15.88;67.39
2675;BME280;1347;42.122;24.746;2023-03-26T06:02:36;99132.28;;;16.13;66.85
2675;BME280;1347;42.122;24.746;2023-03-26T06:05:04;99136.06;;;16.53;65.80
2675;BME280;1347;42.122;24.746;2023-03-26T06:07:32;99147.63;;;16.98;63.58
2675;BME280;1347;42.122;24.746;2023-03-26T06:10:01;99156.91;;;17.74;62.55
2675;BME280;1347;42.122;24.746;2023-03-26T06:12:28;99155.22;;;18.36;60.48
2675;BME280;1347;42.122;24.746;2023-03-26T06:14:55;99158.94;;;18.98;58.31
2675;BME280;1347;42.122;24.746;2023-03-26T06:17:22;99152.03;;;19.80;56.32
2675;BME280;1347;42.122;24.746;2023-03-26T06:19:49;99160.06;;;19.91;55.73
2675;BME280;1347;42.122;24.746;2023-03-26T06:22:16;99154.72;;;20.63;53.46
2675;BME280;1347;42.122;24.746;2023-03-26T06:24:43;99153.59;;;20.86;52.55
2675;BME280;1347;42.122;24.746;2023-03-26T06:27:11;99159.84;;;22.15;50.55
2675;BME280;1347;42.122;24.746;2023-03-26T06:29:38;99159.59;;;22.62;47.93
2675;BME280;1347;42.122;24.746;2023-03-26T06:32:05;99151.41;;;23.26;46.19
2675;BME280;1347;42.122;24.746;2023-03-26T06:34:32;99144.59;;;23.73;43.98
2675;BME280;1347;42.122;24.746;2023-03-26T06:36:59;99141.13;;;25.37;41.20
2675;BME280;1347;42.122;24.746;2023-03-26T06:39:26;99128.31;;;25.84;39.25
2675;BME280;1347;42.122;24.746;2023-03-26T06:41:53;99130.13;;;26.01;38.17
2675;BME280;1347;42.122;24.746;2023-03-26T06:44:22;99129.63;;;26.47;36.52
2675;BME280;1347;42.122;24.746;2023-03-26T06:46:49;99123.25;;;26.17;36.40
2675;BME280;1347;42.122;24.746;2023-03-26T06:49:16;99127.31;;;26.16;35.12
2675;BME280;1347;42.122;24.746;2023-03-26T06:51:43;99139.16;;;26.85;34.26
2675;BME280;1347;42.122;24.746;2023-03-26T06:54:11;99098.84;;;26.23;34.61
2675;BME280;1347;42.122;24.746;2023-03-26T06:56:38;99126.56;;;27.35;34.55
2675;BME280;1347;42.122;24.746;2023-03-26T06:59:05;99132.44;;;26.62;35.40
2675;BME280;1347;42.122;24.746;2023-03-26T07:01:33;99118.56;;;27.54;33.17
2675;BME280;1347;42.122;24.746;2023-03-26T07:04:00;99141.25;;;26.90;34.95
2675;BME280;1347;42.122;24.746;2023-03-26T07:06:27;99142.38;;;27.53;34.40
2675;BME280;1347;42.122;24.746;2023-03-26T07:08:54;99148.78;;;28.94;32.17
2675;BME280;1347;42.122;24.746;2023-03-26T07:11:21;99132.03;;;27.91;33.06
2675;BME280;1347;42.122;24.746;2023-03-26T07:13:50;99163.63;;;27.14;33.81
2675;BME280;1347;42.122;24.746;2023-03-26T07:16:17;99153.06;;;27.69;32.41
2675;BME280;1347;42.122;24.746;2023-03-26T07:18:45;99182.56;;;28.77;31.12
2675;BME280;1347;42.122;24.746;2023-03-26T07:21:13;99179.91;;;29.05;30.63
2675;BME280;1347;42.122;24.746;2023-03-26T07:23:41;99173.72;;;30.70;28.42
2675;BME280;1347;42.122;24.746;2023-03-26T07:26:17;99171.94;;;29.52;29.77
2675;BME280;1347;42.122;24.746;2023-03-26T07:28:48;99172.91;;;30.08;29.16
2675;BME280;1347;42.122;24.746;2023-03-26T07:31:24;99177.84;;;33.08;26.85
2675;BME280;1347;42.122;24.746;2023-03-26T07:33:59;99175.00;;;32.18;27.04
2675;BME280;1347;42.122;24.746;2023-03-26T07:36:31;99162.75;;;32.94;26.42
2675;BME280;1347;42.122;24.746;2023-03-26T07:39:08;99175.75;;;32.18;26.19
2675;BME280;1347;42.122;24.746;2023-03-26T07:41:44;99163.22;;;32.98;25.73
2675;BME280;1347;42.122;24.746;2023-03-26T07:44:31;99164.69;;;33.29;25.25
2675;BME280;1347;42.122;24.746;2023-03-26T07:47:04;99143.31;;;33.28;24.97
2675;BME280;1347;42.122;24.746;2023-03-26T07:49:39;99124.59;;;32.35;25.80
2675;BME280;1347;42.122;24.746;2023-03-26T07:52:09;99129.94;;;30.93;26.37
2675;BME280;1347;42.122;24.746;2023-03-26T07:54:36;99131.19;;;31.72;26.36
2675;BME280;1347;42.122;24.746;2023-03-26T07:57:05;99134.56;;;34.65;24.27
2675;BME280;1347;42.122;24.746;2023-03-26T07:59:39;99148.34;;;33.78;24.54
2675;BME280;1347;42.122;24.746;2023-03-26T08:02:30;99139.13;;;34.23;23.91
2675;BME280;1347;42.122;24.746;2023-03-26T08:05:15;99129.56;;;34.07;23.72
2675;BME280;1347;42.122;24.746;2023-03-26T08:07:54;99113.69;;;33.18;24.13
2675;BME280;1347;42.122;24.746;2023-03-26T08:10:25;99122.94;;;33.61;23.98
2675;BME280;1347;42.122;24.746;2023-03-26T08:13:00;99137.81;;;35.01;23.21
2675;BME280;1347;42.122;24.746;2023-03-26T08:15:35;99116.00;;;32.71;23.80
2675;BME280;1347;42.122;24.746;2023-03-26T08:18:13;99110.53;;;34.47;23.78
2675;BME280;1347;42.122;24.746;2023-03-26T08:20:49;99119.56;;;33.63;23.61
2675;BME280;1347;42.122;24.746;2023-03-26T08:23:24;99111.28;;;33.84;23.85
2675;BME280;1347;42.122;24.746;2023-03-26T08:25:59;99112.78;;;36.14;23.08
2675;BME280;1347;42.122;24.746;2023-03-26T08:28:34;99081.56;;;37.58;21.90
2675;BME280;1347;42.122;24.746;2023-03-26T08:31:03;99111.19;;;36.47;22.03
2675;BME280;1347;42.122;24.746;2023-03-26T08:33:30;99122.09;;;37.78;21.31
2675;BME280;1347;42.122;24.746;2023-03-26T08:36:00;99112.34;;;39.88;20.37
2675;BME280;1347;42.122;24.746;2023-03-26T08:38:27;99102.56;;;37.53;20.87
2675;BME280;1347;42.122;24.746;2023-03-26T08:44:29;99102.25;;;37.29;21.19
2675;BME280;1347;42.122;24.746;2023-03-26T08:47:15;99111.38;;;38.68;20.77
2675;BME280;1347;42.122;24.746;2023-03-26T08:50:14;99097.97;;;38.85;20.30
2675;BME280;1347;42.122;24.746;2023-03-26T08:53:08;99119.53;;;38.48;19.85
2675;BME280;1347;42.122;24.746;2023-03-26T08:55:48;99123.53;;;41.35;19.33
2675;BME280;1347;42.122;24.746;2023-03-26T09:05:16;99078.66;;;37.94;19.80
2675;BME280;1347;42.122;24.746;2023-03-26T09:11:02;99082.41;;;39.66;18.60
2675;BME280;1347;42.122;24.746;2023-03-26T09:14:02;99097.16;;;39.15;18.46
2675;BME280;1347;42.122;24.746;2023-03-26T09:16:56;99074.47;;;39.82;18.14
2675;BME280;1347;42.122;24.746;2023-03-26T09:19:56;99087.28;;;38.25;19.03
2675;BME280;1347;42.122;24.746;2023-03-26T09:23:02;99092.13;;;37.71;18.46
2675;BME280;1347;42.122;24.746;2023-03-26T09:25:52;99094.31;;;39.00;17.80
2675;BME280;1347;42.122;24.746;2023-03-26T09:34:43;99069.16;;;38.45;18.35
2675;BME280;1347;42.122;24.746;2023-03-26T09:37:31;99077.94;;;38.47;18.85
2675;BME280;1347;42.122;24.746;2023-03-26T09:40:17;99074.50;;;39.74;17.88
2675;BME280;1347;42.122;24.746;2023-03-26T09:43:00;99045.09;;;40.66;17.94
2675;BME280;1347;42.122;24.746;2023-03-26T09:45:54;99055.53;;;41.13;17.91
2675;BME280;1347;42.122;24.746;2023-03-26T09:48:49;99061.69;;;39.76;17.58
2675;BME280;1347;42.122;24.746;2023-03-26T10:01:32;99060.53;;;40.53;16.73
2675;BME280;1347;42.122;24.746;2023-03-26T10:04:30;99037.16;;;38.94;17.88
2675;BME280;1347;42.122;24.746;2023-03-26T10:07:10;99038.66;;;39.83;17.32
2675;BME280;1347;42.122;24.746;2023-03-26T10:09:47;99033.19;;;41.92;16.88
2675;BME280;1347;42.122;24.746;2023-03-26T10:12:24;99028.28;;;41.14;16.92
2675;BME280;1347;42.122;24.746;2023-03-26T10:15:03;99028.97;;;39.79;17.26
2675;BME280;1347;42.122;24.746;2023-03-26T10:17:48;99036.09;;;40.27;17.81
2675;BME280;1347;42.122;24.746;2023-03-26T10:20:32;99008.78;;;39.61;16.88
2675;BME280;1347;42.122;24.746;2023-03-26T10:23:24;99024.53;;;40.52;16.99
2675;BME280;1347;42.122;24.746;2023-03-26T10:26:08;99016.88;;;41.06;16.90
2675;BME280;1347;42.122;24.746;2023-03-26T10:28:51;99013.66;;;40.51;17.12
2675;BME280;1347;42.122;24.746;2023-03-26T10:31:38;99006.66;;;39.94;17.28
2675;BME280;1347;42.122;24.746;2023-03-26T10:34:15;98994.81;;;38.78;18.19
2675;BME280;1347;42.122;24.746;2023-03-26T10:36:51;99004.97;;;37.72;18.57
2675;BME280;1347;42.122;24.746;2023-03-26T10:39:43;99006.75;;;35.48;18.85
2675;BME280;1347;42.122;24.746;2023-03-26T10:42:34;98980.56;;;33.46;20.50
2675;BME280;1347;42.122;24.746;2023-03-26T10:45:25;98963.41;;;33.84;19.74
2675;BME280;1347;42.122;24.746;2023-03-26T10:48:11;98966.06;;;33.95;19.61
2675;BME280;1347;42.122;24.746;2023-03-26T10:54:04;98983.69;;;32.13;20.90
2675;BME280;1347;42.122;24.746;2023-03-26T10:56:39;98970.47;;;31.62;21.40
2675;BME280;1347;42.122;24.746;2023-03-26T10:59:09;98973.19;;;30.96;21.39
2675;BME280;1347;42.122;24.746;2023-03-26T11:01:41;98972.69;;;29.84;22.36
2675;BME280;1347;42.122;24.746;2023-03-26T11:04:22;98968.50;;;29.13;22.56
2675;BME280;1347;42.122;24.746;2023-03-26T11:07:00;98974.25;;;28.22;24.06
2675;BME280;1347;42.122;24.746;2023-03-26T11:09:38;98966.31;;;28.74;23.51
2675;BME280;1347;42.122;24.746;2023-03-26T11:12:16;98956.38;;;28.84;23.29
2675;BME280;1347;42.122;24.746;2023-03-26T11:14:54;98955.84;;;28.27;23.76
2675;BME280;1347;42.122;24.746;2023-03-26T11:17:34;98956.22;;;27.20;23.93
2675;BME280;1347;42.122;24.746;2023-03-26T11:20:07;98951.97;;;26.84;25.02
2675;BME280;1347;42.122;24.746;2023-03-26T11:22:46;98940.44;;;27.02;24.66
2675;BME280;1347;42.122;24.746;2023-03-26T11:25:36;98941.94;;;27.23;24.00
2675;BME280;1347;42.122;24.746;2023-03-26T11:28:15;98940.22;;;27.31;23.73
2675;BME280;1347;42.122;24.746;2023-03-26T11:30:53;98932.94;;;26.53;23.73
2675;BME280;1347;42.122;24.746;2023-03-26T11:33:24;98931.28;;;27.33;23.68
2675;BME280;1347;42.122;24.746;2023-03-26T11:35:55;98934.97;;;27.19;23.63
2675;BME280;1347;42.122;24.746;2023-03-26T11:38:30;98935.06;;;27.87;23.59
2675;BME280;1347;42.122;24.746;2023-03-26T11:41:02;98929.81;;;28.06;23.67
2675;BME280;1347;42.122;24.746;2023-03-26T11:43:34;98910.25;;;27.91;22.93
2675;BME280;1347;42.122;24.746;2023-03-26T11:46:02;98915.88;;;28.28;23.48
2675;BME280;1347;42.122;24.746;2023-03-26T11:48:32;98920.72;;;28.28;23.23
2675;BME280;1347;42.122;24.746;2023-03-26T11:51:06;98911.00;;;27.92;23.55
2675;BME280;1347;42.122;24.746;2023-03-26T11:53:35;98916.22;;;28.04;24.15
2675;BME280;1347;42.122;24.746;2023-03-26T11:56:10;98902.50;;;28.17;23.57
2675;BME280;1347;42.122;24.746;2023-03-26T11:58:42;98899.69;;;28.93;23.97
2675;BME280;1347;42.122;24.746;2023-03-26T12:01:14;98896.16;;;29.26;22.87
2675;BME280;1347;42.122;24.746;2023-03-26T12:03:54;98898.22;;;29.59;22.26
2675;BME280;1347;42.122;24.746;2023-03-26T12:06:23;98897.69;;;29.22;23.10
2675;BME280;1347;42.122;24.746;2023-03-26T12:08:53;98900.50;;;29.05;23.40
2675;BME280;1347;42.122;24.746;2023-03-26T12:11:25;98899.00;;;29.38;22.04
2675;BME280;1347;42.122;24.746;2023-03-26T12:13:57;98896.06;;;30.85;21.13
2675;BME280;1347;42.122;24.746;2023-03-26T12:16:27;98897.09;;;32.12;20.79
2675;BME280;1347;42.122;24.746;2023-03-26T12:18:59;98892.00;;;34.80;19.20
2675;BME280;1347;42.122;24.746;2023-03-26T12:21:27;98889.84;;;35.48;19.27
2675;BME280;1347;42.122;24.746;2023-03-26T12:23:57;98886.16;;;38.64;18.05
2675;BME280;1347;42.122;24.746;2023-03-26T12:26:37;98888.63;;;37.90;17.28
2675;BME280;1347;42.122;24.746;2023-03-26T12:29:09;98879.09;;;38.65;17.17
2675;BME280;1347;42.122;24.746;2023-03-26T12:31:41;98876.38;;;37.97;17.54
2675;BME280;1347;42.122;24.746;2023-03-26T12:34:16;98877.06;;;36.47;18.66
2675;BME280;1347;42.122;24.746;2023-03-26T12:36:48;98872.31;;;34.42;18.44
2675;BME280;1347;42.122;24.746;2023-03-26T12:39:32;98867.94;;;34.41;18.26
2675;BME280;1347;42.122;24.746;2023-03-26T12:42:01;98860.50;;;33.27;18.50
2675;BME280;1347;42.122;24.746;2023-03-26T12:44:33;98858.69;;;31.87;19.01
2675;BME280;1347;42.122;24.746;2023-03-26T12:47:12;98850.53;;;31.78;19.31
2675;BME280;1347;42.122;24.746;2023-03-26T12:49:40;98855.53;;;30.65;19.27
2675;BME280;1347;42.122;24.746;2023-03-26T12:52:25;98851.22;;;30.94;18.91
2675;BME280;1347;42.122;24.746;2023-03-26T12:55:04;98843.16;;;31.09;18.06
2675;BME280;1347;42.122;24.746;2023-03-26T12:57:35;98829.56;;;31.02;18.45
2675;BME280;1347;42.122;24.746;2023-03-26T13:00:24;98845.25;;;31.03;18.48
2675;BME280;1347;42.122;24.746;2023-03-26T13:03:13;98823.75;;;29.68;19.83
2675;BME280;1347;42.122;24.746;2023-03-26T13:06:16;98823.28;;;30.33;19.90
2675;BME280;1347;42.122;24.746;2023-03-26T13:08:59;98818.75;;;30.65;19.41
2675;BME280;1347;42.122;24.746;2023-03-26T13:11:41;98810.56;;;29.93;20.06
2675;BME280;1347;42.122;24.746;2023-03-26T13:14:42;98816.00;;;29.80;20.50
2675;BME280;1347;42.122;24.746;2023-03-26T13:17:19;98804.75;;;29.63;19.73
2675;BME280;1347;42.122;24.746;2023-03-26T13:19:54;98804.72;;;29.74;20.00
2675;BME280;1347;42.122;24.746;2023-03-26T13:22:27;98810.94;;;29.34;19.43
2675;BME280;1347;42.122;24.746;2023-03-26T13:25:04;98804.41;;;29.89;19.83
2675;BME280;1347;42.122;24.746;2023-03-26T13:27:48;98797.53;;;29.73;20.09
2675;BME280;1347;42.122;24.746;2023-03-26T13:30:24;98793.63;;;29.87;19.65
2675;BME280;1347;42.122;24.746;2023-03-26T13:33:10;98786.00;;;29.71;20.28
2675;BME280;1347;42.122;24.746;2023-03-26T13:35:48;98789.09;;;30.31;19.69
2675;BME280;1347;42.122;24.746;2023-03-26T13:38:24;98801.16;;;30.78;19.11
2675;BME280;1347;42.122;24.746;2023-03-26T13:41:02;98800.97;;;31.60;19.18
2675;BME280;1347;42.122;24.746;2023-03-26T13:43:44;98797.66;;;31.32;18.82
2675;BME280;1347;42.122;24.746;2023-03-26T13:46:23;98785.50;;;31.13;19.25
2675;BME280;1347;42.122;24.746;2023-03-26T13:48:56;98788.06;;;31.11;19.84
2675;BME280;1347;42.122;24.746;2023-03-26T13:51:29;98788.25;;;32.15;18.92
2675;BME280;1347;42.122;24.746;2023-03-26T13:54:04;98786.56;;;30.68;18.82
2675;BME280;1347;42.122;24.746;2023-03-26T13:56:37;98782.66;;;30.77;19.98
2675;BME280;1347;42.122;24.746;2023-03-26T13:59:12;98771.88;;;29.65;20.57
2675;BME280;1347;42.122;24.746;2023-03-26T14:01:42;98781.13;;;28.71;20.55
2675;BME280;1347;42.122;24.746;2023-03-26T14:04:16;98782.16;;;28.57;21.51
2675;BME280;1347;42.122;24.746;2023-03-26T14:06:48;98787.13;;;27.55;21.91
2675;BME280;1347;42.122;24.746;2023-03-26T14:09:25;98778.28;;;27.36;21.69
2675;BME280;1347;42.122;24.746;2023-03-26T14:12:15;98778.50;;;27.32;21.71
2675;BME280;1347;42.122;24.746;2023-03-26T14:14:49;98780.34;;;27.35;21.70